Flight Track Log - Related Links

Times and Time Zones

All times are in EDT time to prevent confusion due to time zone crossing. See the LXJ444 flight status page for this flight to view local times or setup timezone preferences in your user account.

Time Position Orientation Groundspeed Altitude Reporting Facility
EDT Latitude Longitude Course Direction KTS MPH feet Rate Location/Type
Fri 11:26:13 AM 42.9333 -78.7167 144° Southeast 148 170 1,800  Level Buffalo TRACON
Fri 11:26:55 AM 42.9000 -78.6833 144° Southeast 187 215 3,400 2,323 Climbing Buffalo TRACON
Fri 11:27:46 AM 42.8594 -78.6856 182° South 233 268 5,400 2,811 Climbing Cleveland Center
Fri 11:28:46 AM 42.7842 -78.6792 176° South 261 300 8,600 2,100 Climbing Cleveland Center
Fri 11:29:46 AM 42.7028 -78.6733 177° South 311 358 9,600 1,500 Climbing Cleveland Center
Fri 11:30:46 AM 42.6381 -78.6639 174° South 292 336 11,600 3,000 Climbing Cleveland Center
Fri 11:31:46 AM 42.5483 -78.6583 177° South 302 348 15,600 4,050 Climbing Cleveland Center
Fri 11:32:46 AM 42.4544 -78.6497 176° South 326 375 19,700 3,800 Climbing Cleveland Center
Fri 11:33:46 AM 42.3542 -78.6306 172° South 352 405 23,200 2,500 Climbing Cleveland Center
Fri 11:34:46 AM 42.2469 -78.5806 161° South 377 434 24,700 1,000 Climbing Cleveland Center
Fri 11:35:46 AM 42.1375 -78.5306 161° South 404 465 25,200 900 Climbing Cleveland Center
Fri 11:36:46 AM 42.0219 -78.4814 162° South 421 484 26,500 900 Climbing Cleveland Center
Fri 11:37:46 AM 41.9064 -78.4292 161° South 435 501 27,000 250 Climbing Cleveland Center
Fri 11:38:46 AM 41.7928 -78.3772 161° South 435 501 27,000  Level Cleveland Center
Fri 11:39:46 AM 41.6772 -78.3283 162° South 435 501 27,000  Level Cleveland Center
Fri 11:40:46 AM 41.5658 -78.2797 162° South 435 501 27,000  Level Cleveland Center
Fri 11:41:46 AM 41.4500 -78.2256 161° South 430 495 27,000 -442 Level Cleveland Center
Fri 11:43:29 AM 41.2553 -78.1403 162° South 415 478 25,800 -732 Descending New York Center
Fri 11:44:30 AM 41.1292 -78.0878 163° South 420 483 25,000 -400 Descending New York Center
Fri 11:45:29 AM 41.0194 -78.0403 162° South 426 490 25,000  Level New York Center
Fri 11:46:28 AM 40.9103 -77.9875 160° South 426 490 25,000 -692 Level New York Center
Fri 11:48:31 AM 40.7281 -77.7928 141° Southeast 420 483 22,900 -1,180 Descending New York Center
Fri 11:49:31 AM 40.6417 -77.7019 141° Southeast 420 483 21,400 -1,525 Descending New York Center
Fri 11:50:29 AM 40.5553 -77.6114 141° Southeast 409 471 19,900 -1,627 Descending New York Center
Fri 11:51:29 AM 40.4633 -77.5422 150° Southeast 389 448 18,200 -1,488 Descending New York Center
Fri 11:52:30 AM 40.3739 -77.5033 162° South 374 430 16,900 -1,450 Descending New York Center
Fri 11:53:29 AM 40.2658 -77.4603 163° South 374 430 15,300 -1,513 Descending New York Center
Fri 11:54:29 AM 40.1803 -77.4247 162° South 369 425 13,900 -708 Descending New York Center
Fri 11:56:44 AM 39.9667 -77.3333 162° South 345 397 13,000 -278 Descending Potomac TRACON
Fri 11:57:43 AM 39.8833 -77.3000 163° South 334 384 13,000 -263 Level Potomac TRACON
Fri 11:58:38 AM 39.8000 -77.2833 171° South 335 386 12,500 -1,357 Descending Potomac TRACON
Fri 11:59:38 AM 39.7167 -77.3167 197° South 327 376 10,400 -1,800 Descending Potomac TRACON
Fri 12:00:38 PM 39.6333 -77.3333 189° South 284 327 8,900 -1,800 Descending Potomac TRACON
Fri 12:01:38 PM 39.5667 -77.3500 191° South 274 315 6,800 -2,000 Descending Potomac TRACON
Fri 12:02:38 PM 39.5000 -77.3667 191° South 262 302 4,900 -1,474 Descending Potomac TRACON
Fri 12:03:32 PM 39.4333 -77.3833 191° South 256 295 4,000 -474 Descending Potomac TRACON
Fri 12:04:32 PM 39.3500 -77.4000 189° South 257 296 4,000  Level Potomac TRACON
Fri 12:05:32 PM 39.2833 -77.4333 201° Southwest 257 296 4,000 -450 Level Potomac TRACON
Fri 12:06:32 PM 39.2167 -77.4333 180° South 251 289 3,100 -500 Descending Potomac TRACON
Fri 12:07:32 PM 39.1500 -77.4333 180° South 249 287 3,000 -198 Descending Potomac TRACON
Fri 12:08:33 PM 39.0833 -77.4333 180° South 226 260 2,700 -645 Descending Potomac TRACON
Fri 12:09:33 PM 39.0167 -77.4333 180° South 197 227 1,700 -900 Descending Potomac TRACON
Fri 12:10:33 PM 38.9833 -77.4333 180° South 139 160 900 -800 Descending Potomac TRACON
Fri 12:12:00 PM 38.9474 -77.4599 90° East  Level Estimated
Fri 12:19:00 PM 38.9474 -77.4599 90° East  Level Estimated
Fri 12:20:00 PM 38.9474 -77.4599 90° East  Level Estimated
Fri 12:21:00 PM 38.9474 -77.4599 90° East  Level Estimated
Fri 12:22:00 PM 38.9474 -77.4599 90° East  Level Estimated
Fri 12:23:00 PM 38.9474 -77.4599 90° East  Level Estimated
Fri 12:24:00 PM 38.9474 -77.4599 90° East  Level Estimated

Login

Don't have an account? Register now (free) for customized features, flight alerts, and more!